Time;durP1;ratioP1;P1;durP2;ratioP2;P2;SDS_P1;SDS_P2;PMS_P1;PMS_P2;Temp;Humidity;BMP_temperature;BMP_pressure;BME280_temperature;BME280_humidity;BME280_pressure;Samples;Min_cycle;Max_cycle;Signal;HPM_P1;HPM_P2
2022/03/18 00:00:34;;;;;;;32.13;15.98;;;;;;;2.02;69.55;103370.47;4919096;29;20465;-72
2022/03/18 00:03:20;;;;;;;31.85;16.00;;;;;;;1.65;69.60;103372.53;4919237;29;20394;-71
2022/03/18 00:06:06;;;;;;;35.30;16.35;;;;;;;1.85;70.04;103372.03;4918584;29;20028;-72
2022/03/18 00:08:52;;;;;;;33.50;16.50;;;;;;;1.67;71.16;103367.47;4919322;29;20046;-71
2022/03/18 00:11:37;;;;;;;31.08;16.77;;;;;;;1.68;72.12;103367.56;4918903;29;20024;-71
2022/03/18 00:14:23;;;;;;;32.88;17.70;;;;;;;1.57;73.45;103371.19;4917899;29;20156;-71
2022/03/18 00:17:11;;;;;;;34.60;19.02;;;;;;;1.62;74.19;103376.63;4918834;29;20035;-72
2022/03/18 00:19:57;;;;;;;34.40;17.98;;;;;;;1.53;76.05;103370.91;4918854;29;20122;-72
2022/03/18 00:22:44;;;;;;;35.50;18.42;;;;;;;1.59;76.98;103371.28;4918015;29;20115;-72
2022/03/18 00:25:30;;;;;;;36.78;18.75;;;;;;;1.39;77.01;103374.31;4918169;29;20449;-73
2022/03/18 00:28:15;;;;;;;36.53;19.27;;;;;;;1.55;78.29;103374.47;4917873;29;20067;-71
2022/03/18 00:31:03;;;;;;;34.78;17.98;;;;;;;1.55;77.03;103370.22;4918615;29;20036;-72
2022/03/18 00:33:49;;;;;;;32.42;17.25;;;;;;;1.22;77.08;103368.16;4918430;29;20043;-71
2022/03/18 00:36:35;;;;;;;34.30;18.63;;;;;;;1.41;76.48;103365.88;4923069;29;20035;-71
2022/03/18 00:39:21;;;;;;;32.08;17.67;;;;;;;1.24;77.14;103366.53;4921339;29;20103;-71
2022/03/18 00:42:07;;;;;;;28.02;15.80;;;;;;;1.28;73.92;103375.38;4921297;29;20028;-72
2022/03/18 00:44:53;;;;;;;28.05;15.85;;;;;;;1.18;73.62;103376.50;4922691;29;20472;-72
2022/03/18 00:53:47;;;;;;;23.88;13.00;;;;;;;1.46;68.74;103374.81;4921491;29;20055;-72
2022/03/18 00:56:33;;;;;;;26.83;13.90;;;;;;;1.31;69.62;103373.88;4922143;29;20055;-72
2022/03/18 00:59:19;;;;;;;25.35;14.02;;;;;;;1.63;68.93;103375.81;4921571;29;20123;-72
2022/03/18 01:02:05;;;;;;;26.55;14.85;;;;;;;1.45;69.24;103373.00;4921610;29;20036;-71
2022/03/18 01:04:51;;;;;;;24.30;13.52;;;;;;;1.64;68.66;103380.22;4922144;29;20028;-73
2022/03/18 01:07:37;;;;;;;24.83;13.70;;;;;;;1.70;69.91;103378.00;4922474;29;20024;-73
2022/03/18 01:10:22;;;;;;;27.17;13.77;;;;;;;1.20;72.31;103387.78;4921358;29;20066;-73
2022/03/18 01:13:08;;;;;;;26.60;14.45;;;;;;;1.54;72.77;103388.19;4921432;29;20027;-72
2022/03/18 01:15:54;;;;;;;27.17;14.35;;;;;;;1.49;73.89;103393.06;4921515;29;20024;-72
2022/03/18 01:18:39;;;;;;;25.02;13.75;;;;;;;1.38;73.09;103385.47;4921005;29;20028;-71
2022/03/18 01:21:25;;;;;;;24.98;14.27;;;;;;;1.53;71.45;103392.47;4908164;29;20032;-71
2022/03/18 01:24:11;;;;;;;32.80;14.60;;;;;;;1.24;73.42;103394.06;4907710;29;20376;-71
2022/03/18 01:26:57;;;;;;;29.88;14.60;;;;;;;0.94;75.48;103394.69;4907997;29;20032;-72
2022/03/18 01:29:42;;;;;;;29.55;15.27;;;;;;;1.05;74.95;103391.13;4921549;29;20364;-71
2022/03/18 01:32:28;;;;;;;28.52;14.48;;;;;;;1.12;75.09;103394.16;4921864;29;20449;-72
2022/03/18 01:35:14;;;;;;;25.92;14.82;;;;;;;1.37;74.31;103394.88;4921318;29;20122;-72
2022/03/18 01:38:00;;;;;;;26.05;14.00;;;;;;;1.45;74.30;103395.38;4921086;29;20036;-73
2022/03/18 01:40:45;;;;;;;24.60;14.35;;;;;;;1.07;76.24;103392.09;4907560;29;20025;-72
2022/03/18 01:43:46;;;;;;;31.42;15.90;;;;;;;1.13;77.18;103392.50;4921221;29;20043;-72
2022/03/18 01:46:31;;;;;;;28.15;15.52;;;;;;;1.27;77.74;103391.66;4920009;29;20506;-72
2022/03/18 01:49:17;;;;;;;31.08;16.25;;;;;;;1.09;81.29;103394.00;4906933;29;20131;-71
2022/03/18 01:52:05;;;;;;;24.75;14.65;;;;;;;1.14;81.81;103395.16;4920834;29;20115;-73
2022/03/18 01:54:52;;;;;;;27.33;14.75;;;;;;;1.19;80.70;103405.78;4920817;29;20032;-72
2022/03/18 01:57:38;;;;;;;28.42;14.82;;;;;;;1.17;78.54;103410.88;4906780;29;20024;-72
2022/03/18 02:00:24;;;;;;;22.38;13.10;;;;;;;0.77;74.56;103411.69;4921227;29;20055;-72
2022/03/18 02:03:10;;;;;;;20.98;11.18;;;;;;;0.92;73.75;103416.94;4919916;29;20063;-73
2022/03/18 02:05:57;;;;;;;18.17;10.80;;;;;;;0.74;71.46;103411.50;4906324;29;20028;-73
2022/03/18 02:08:45;;;;;;;20.20;10.80;;;;;;;0.72;68.17;103420.81;4920817;29;20525;-71
2022/03/18 02:11:30;;;;;;;17.85;10.63;;;;;;;1.05;67.11;103424.66;4920118;29;20100;-73
2022/03/18 02:14:38;;;;;;;17.33;9.98;;;;;;;0.95;68.15;103424.84;4920188;29;20120;-72
2022/03/18 02:17:24;;;;;;;22.25;11.43;;;;;;;1.03;67.07;103421.09;4919440;29;20035;-72
2022/03/18 02:20:10;;;;;;;16.17;9.75;;;;;;;1.16;66.74;103426.25;4907344;29;20032;-71
2022/03/18 02:22:56;;;;;;;17.08;10.63;;;;;;;0.86;67.89;103425.19;4918818;29;20369;-71
2022/03/18 02:25:41;;;;;;;16.75;10.55;;;;;;;1.03;67.54;103427.16;4921106;29;20062;-73
2022/03/18 02:28:27;;;;;;;21.25;10.80;;;;;;;0.54;71.04;103426.44;4919524;29;20100;-71
2022/03/18 02:31:13;;;;;;;20.52;11.18;;;;;;;1.03;69.90;103436.56;4920691;29;20441;-71
2022/03/18 02:33:59;;;;;;;24.80;11.25;;;;;;;0.93;70.84;103435.13;4920392;29;20044;-72
2022/03/18 02:36:45;;;;;;;20.85;11.55;;;;;;;1.05;71.38;103440.16;4919479;29;20472;-73
2022/03/18 02:39:31;;;;;;;19.95;11.90;;;;;;;0.84;72.68;103437.06;4906035;29;20365;-72
2022/03/18 02:42:18;;;;;;;19.55;11.80;;;;;;;0.78;75.19;103439.28;4919733;29;20028;-71
2022/03/18 02:45:04;;;;;;;22.77;13.05;;;;;;;0.59;76.98;103441.44;4919315;29;20427;-71
2022/03/18 02:47:50;;;;;;;24.80;13.43;;;;;;;0.43;78.65;103446.38;4920049;29;20084;-72
2022/03/18 02:50:36;;;;;;;24.98;14.30;;;;;;;0.43;81.32;103459.28;4906929;29;20050;-72
2022/03/18 02:53:22;;;;;;;28.85;14.70;;;;;;;0.85;79.69;103450.88;4918797;29;20354;-71
2022/03/18 02:56:08;;;;;;;27.45;15.15;;;;;;;0.59;81.24;103453.47;4920234;29;20024;-71
2022/03/18 02:58:53;;;;;;;29.42;14.45;;;;;;;0.51;83.25;103463.25;4919480;29;20119;-71
2022/03/18 03:01:39;;;;;;;28.20;14.52;;;;;;;0.76;79.69;103450.28;4905520;29;20100;-73
2022/03/18 03:04:25;;;;;;;23.45;13.93;;;;;;;0.41;80.22;103458.28;4919222;29;20365;-72
2022/03/18 03:10:16;;;;;;;28.00;14.95;;;;;;;0.49;81.68;103459.69;4919149;29;20032;-72
2022/03/18 03:13:06;;;;;;;28.70;14.63;;;;;;;0.40;82.00;103463.34;4919383;29;20112;-70
2022/03/18 03:15:52;;;;;;;26.23;14.82;;;;;;;0.23;81.33;103471.63;4919277;29;20024;-72
2022/03/18 03:18:37;;;;;;;29.23;15.23;;;;;;;0.13;81.48;103472.69;4919611;29;20024;-71
2022/03/18 03:21:23;;;;;;;38.67;21.15;;;;;;;0.32;79.33;103483.44;4905398;29;20368;-72
2022/03/18 03:24:09;;;;;;;39.45;24.33;;;;;;;0.36;77.93;103482.84;4919429;29;20449;-71
2022/03/18 03:26:55;;;;;;;43.92;27.13;;;;;;;0.15;78.55;103485.69;4892698;29;20036;-71
2022/03/18 03:29:41;;;;;;;40.88;27.02;;;;;;;0.19;78.20;103501.44;4919526;29;20095;-72
2022/03/18 03:32:29;;;;;;;39.90;21.70;;;;;;;0.60;74.48;103496.50;4918953;29;20032;-72
2022/03/18 03:35:15;;;;;;;34.33;19.00;;;;;;;0.31;74.37;103494.53;4918743;29;20118;-71
2022/03/18 03:38:01;;;;;;;36.25;19.10;;;;;;;0.27;75.35;103502.00;4919142;29;20035;-71
2022/03/18 03:40:48;;;;;;;36.35;17.10;;;;;;;0.31;72.16;103502.28;4918728;29;20043;-73
2022/03/18 03:43:34;;;;;;;35.42;18.70;;;;;;;0.32;72.10;103506.63;4918838;29;20051;-72
2022/03/18 03:46:19;;;;;;;42.30;21.75;;;;;;;0.64;70.10;103509.69;4918779;29;20047;-72
2022/03/18 03:49:05;;;;;;;55.63;26.35;;;;;;;0.38;69.71;103504.50;4918126;29;20066;-72
2022/03/18 03:51:51;;;;;;;47.83;22.65;;;;;;;0.65;67.65;103508.94;4918635;29;20524;-72
2022/03/18 03:54:38;;;;;;;40.80;19.65;;;;;;;0.42;67.64;103519.38;4918835;29;20454;-73
2022/03/18 03:57:24;;;;;;;39.38;19.23;;;;;;;0.24;67.81;103523.28;4919671;29;20032;-72
2022/03/18 04:00:11;;;;;;;35.63;17.60;;;;;;;-0.02;69.05;103524.06;4919215;29;20031;-72
2022/03/18 04:02:56;;;;;;;29.98;16.92;;;;;;;-0.21;69.85;103526.16;4904792;29;20028;-72
2022/03/18 04:05:42;;;;;;;33.55;16.08;;;;;;;-0.76;73.54;103528.13;4918348;29;20481;-72
2022/03/18 04:08:29;;;;;;;29.25;15.40;;;;;;;-0.72;73.23;103521.56;4918815;29;20050;-75
2022/03/18 04:11:16;;;;;;;28.55;13.90;;;;;;;-0.82;73.73;103538.00;4922120;29;20032;-72
2022/03/18 04:14:02;;;;;;;26.40;13.50;;;;;;;-0.69;72.36;103530.38;4922278;29;20544;-71
2022/03/18 04:16:47;;;;;;;26.52;13.90;;;;;;;-0.72;72.72;103542.16;4922316;29;20062;-72
2022/03/18 04:19:33;;;;;;;29.00;13.07;;;;;;;-0.95;71.36;103543.03;4922420;29;20035;-71
2022/03/18 04:22:22;;;;;;;23.70;12.82;;;;;;;-0.72;70.76;103553.31;4895354;29;20028;-71
2022/03/18 04:25:09;;;;;;;33.10;13.15;;;;;;;-0.70;70.10;103554.34;4922618;29;20509;-72
2022/03/18 04:27:54;;;;;;;24.80;12.90;;;;;;;-0.68;69.16;103557.03;4922151;29;20028;-72
2022/03/18 04:30:40;;;;;;;26.73;13.70;;;;;;;-0.76;68.80;103556.44;4923563;29;20070;-72
2022/03/18 04:33:26;;;;;;;28.95;14.13;;;;;;;-0.86;70.61;103566.88;4922785;29;20043;-71
2022/03/18 04:36:12;;;;;;;27.65;14.00;;;;;;;-0.71;70.15;103572.25;4908580;29;20032;-76
2022/03/18 04:38:59;;;;;;;29.15;14.93;;;;;;;-0.93;70.73;103563.72;4908745;29;20028;-73
2022/03/18 04:41:44;;;;;;;32.42;15.82;;;;;;;-0.72;70.87;103563.59;4922151;29;20036;-77
2022/03/18 04:44:30;;;;;;;31.52;16.45;;;;;;;-0.71;69.82;103572.25;4921915;29;20123;-71
2022/03/18 04:47:16;;;;;;;31.20;14.82;;;;;;;-0.65;69.31;103572.66;4921557;29;20028;-72
2022/03/18 04:50:03;;;;;;;25.33;13.45;;;;;;;-0.83;68.87;103574.81;4922204;29;20127;-72
2022/03/18 04:52:49;;;;;;;29.88;12.73;;;;;;;-0.94;68.55;103580.84;4921531;29;20028;-72
2022/03/18 04:55:34;;;;;;;27.63;14.10;;;;;;;-0.63;68.46;103581.41;4908388;29;20124;-73
2022/03/18 04:58:20;;;;;;;35.08;13.93;;;;;;;-0.68;67.62;103587.91;4908364;29;20032;-72
2022/03/18 05:01:06;;;;;;;24.83;13.57;;;;;;;-0.56;67.14;103593.97;4922786;29;20042;-73
2022/03/18 05:03:52;;;;;;;29.75;13.90;;;;;;;-0.52;67.89;103590.81;4922244;29;20032;-72
2022/03/18 05:06:39;;;;;;;24.02;13.38;;;;;;;-0.30;66.10;103587.34;4922430;29;20028;-72
2022/03/18 05:09:25;;;;;;;32.38;13.77;;;;;;;-0.29;66.27;103589.13;4921585;29;20043;-72
2022/03/18 05:12:13;;;;;;;26.55;13.48;;;;;;;-0.57;65.67;103593.06;4921132;29;20059;-72
2022/03/18 05:14:59;;;;;;;28.65;13.35;;;;;;;-0.78;65.44;103596.66;4921221;29;20084;-73
2022/03/18 05:17:50;;;;;;;24.08;13.52;;;;;;;-0.66;65.91;103596.63;4921176;29;20020;-72
2022/03/18 05:20:36;;;;;;;24.00;13.02;;;;;;;-0.61;65.33;103603.00;4920974;29;20039;-72
2022/03/18 05:23:22;;;;;;;32.42;14.60;;;;;;;-0.37;65.06;103607.38;4907880;29;20032;-72
2022/03/18 05:26:07;;;;;;;31.08;15.20;;;;;;;-0.27;64.13;103608.13;4921538;29;20098;-71
2022/03/18 05:28:53;;;;;;;29.17;14.13;;;;;;;-0.37;63.15;103620.25;4921548;29;20088;-72
2022/03/18 05:31:39;;;;;;;32.10;15.40;;;;;;;-0.49;63.32;103617.69;4921321;29;20036;-72
2022/03/18 05:34:25;;;;;;;40.47;16.00;;;;;;;-0.14;63.00;103617.66;4921470;29;20099;-73
2022/03/18 05:37:11;;;;;;;35.40;16.60;;;;;;;-0.03;62.55;103616.75;4920932;29;20066;-72
2022/03/18 05:39:57;;;;;;;26.35;13.43;;;;;;;-0.17;61.54;103620.00;4921123;29;20055;-72
2022/03/18 05:42:42;;;;;;;29.42;12.88;;;;;;;-0.56;62.19;103619.72;4921219;29;20032;-72
2022/03/18 05:45:28;;;;;;;23.08;12.32;;;;;;;-0.41;61.25;103623.38;4921287;29;20111;-72
2022/03/18 05:48:14;;;;;;;24.83;11.68;;;;;;;-0.42;61.30;103621.59;4920889;29;20038;-72
2022/03/18 05:51:03;;;;;;;27.00;12.43;;;;;;;-0.38;61.07;103633.91;4921125;29;20040;-72
2022/03/18 05:53:49;;;;;;;25.25;13.57;;;;;;;-0.37;61.32;103631.44;4920481;29;20101;-72
2022/03/18 05:56:54;;;;;;;25.05;12.40;;;;;;;-0.25;60.58;103628.84;4921152;29;20028;-73
2022/03/18 05:59:40;;;;;;;24.85;12.57;;;;;;;-0.21;60.29;103638.59;4906491;29;20042;-72
2022/03/18 06:02:26;;;;;;;26.90;14.25;;;;;;;-0.01;61.25;103630.63;4921382;29;20028;-72
2022/03/18 06:05:12;;;;;;;32.83;15.15;;;;;;;-0.10;60.74;103635.13;4921026;29;20036;-72
2022/03/18 06:11:48;;;;;;;37.97;17.25;;;;;;;0.22;60.97;103640.88;4920422;29;20024;-71
2022/03/18 06:14:08;;;;;;;30.92;14.60;;;;;;;0.59;60.28;103646.94;4920212;29;20131;-71
2022/03/18 06:16:59;;;;;;;29.98;13.88;;;;;;;0.52;60.14;103642.13;4920104;29;20032;-72
2022/03/18 06:19:45;;;;;;;31.05;15.50;;;;;;;0.71;59.91;103658.97;4920496;29;20046;-71
2022/03/18 06:22:31;;;;;;;36.35;16.63;;;;;;;0.62;60.09;103655.75;4920290;29;20076;-72
2022/03/18 06:25:16;;;;;;;34.05;15.13;;;;;;;0.96;59.70;103656.41;4920472;29;20103;-72
2022/03/18 06:28:02;;;;;;;33.35;13.95;;;;;;;1.02;59.65;103662.84;4920685;29;20419;-73
2022/03/18 06:30:48;;;;;;;33.67;15.80;;;;;;;1.03;59.15;103664.66;4920204;29;20036;-73
2022/03/18 06:33:34;;;;;;;37.88;16.33;;;;;;;1.25;58.61;103662.72;4920107;29;20107;-71
2022/03/18 06:36:19;;;;;;;31.48;14.32;;;;;;;1.00;57.90;103658.38;4920491;29;20331;-73
2022/03/18 06:39:06;;;;;;;27.15;13.25;;;;;;;0.93;58.30;103656.19;4907321;29;20605;-72
2022/03/18 06:41:52;;;;;;;27.90;12.57;;;;;;;0.71;58.19;103656.38;4919634;29;20028;-73
2022/03/18 06:44:38;;;;;;;25.02;12.93;;;;;;;0.61;59.05;103656.56;4920346;29;20068;-71
2022/03/18 06:47:24;;;;;;;27.00;12.77;;;;;;;0.83;58.59;103656.31;4919647;29;20064;-72
2022/03/18 06:50:10;;;;;;;26.10;13.38;;;;;;;0.97;58.62;103660.75;4920298;29;20032;-71
2022/03/18 06:52:56;;;;;;;24.63;13.23;;;;;;;0.89;58.90;103657.66;4919629;29;20020;-72
2022/03/18 06:55:41;;;;;;;23.85;12.10;;;;;;;0.94;58.73;103652.78;4919892;29;20456;-71
2022/03/18 06:58:30;;;;;;;20.48;12.10;;;;;;;1.15;58.81;103654.22;4906306;29;20318;-71
2022/03/18 07:01:16;;;;;;;26.73;12.60;;;;;;;1.09;58.74;103669.34;4919741;29;20099;-72
2022/03/18 07:04:02;;;;;;;24.75;12.27;;;;;;;1.02;59.19;103672.28;4919452;29;20036;-72
2022/03/18 07:06:48;;;;;;;24.10;12.70;;;;;;;1.28;58.45;103667.19;4920160;29;20067;-71
2022/03/18 07:09:33;;;;;;;20.95;12.10;;;;;;;1.17;58.87;103668.16;4919206;29;20047;-72
2022/03/18 07:12:19;;;;;;;21.80;11.93;;;;;;;1.61;59.01;103665.13;4905636;29;20086;-72
2022/03/18 07:15:06;;;;;;;21.48;11.85;;;;;;;1.69;58.11;103661.34;4919634;29;20124;-72
2022/03/18 07:17:55;;;;;;;23.08;12.18;;;;;;;1.98;57.98;103658.97;4919078;29;20405;-73
2022/03/18 07:20:41;;;;;;;23.67;12.20;;;;;;;1.96;57.65;103663.13;4919544;29;20106;-72
2022/03/18 07:23:27;;;;;;;21.88;11.85;;;;;;;2.13;57.08;103667.69;4918886;29;20028;-72
2022/03/18 07:26:12;;;;;;;24.80;12.40;;;;;;;2.29;57.41;103672.16;4919528;29;20382;-72
2022/03/18 07:29:01;;;;;;;36.67;20.42;;;;;;;2.12;56.95;103668.50;4918883;29;20032;-71
2022/03/18 07:31:47;;;;;;;28.45;15.45;;;;;;;2.35;57.21;103667.34;4905186;29;20350;-72
2022/03/18 07:34:32;;;;;;;24.85;13.15;;;;;;;2.62;55.87;103667.34;4918967;29;20465;-72
2022/03/18 07:37:18;;;;;;;25.05;13.27;;;;;;;2.81;55.57;103661.63;4919992;29;20035;-72
2022/03/18 07:40:05;;;;;;;29.15;13.90;;;;;;;3.02;55.52;103665.50;4919180;29;20059;-72
2022/03/18 07:42:56;;;;;;;25.92;12.80;;;;;;;3.49;54.77;103662.28;4905237;29;20472;-71
2022/03/18 07:45:42;;;;;;;21.55;12.23;;;;;;;3.18;54.03;103658.72;4919283;29;20028;-72
2022/03/18 07:48:27;;;;;;;24.73;12.15;;;;;;;3.48;53.62;103654.44;4919197;29;20111;-73
2022/03/18 07:51:14;;;;;;;21.27;12.88;;;;;;;4.05;53.28;103656.03;4905327;29;20028;-71
2022/03/18 07:54:00;;;;;;;23.63;12.40;;;;;;;3.77;52.50;103665.66;4919099;29;20025;-72
2022/03/18 07:56:45;;;;;;;40.85;20.95;;;;;;;4.66;52.05;103658.53;4918989;29;20047;-72
2022/03/18 07:59:34;;;;;;;33.22;18.35;;;;;;;5.02;50.96;103657.88;4918463;29;20036;-73
2022/03/18 08:02:20;;;;;;;23.90;11.95;;;;;;;4.68;51.25;103659.53;4918833;29;20558;-73
2022/03/18 08:05:06;;;;;;;21.00;11.70;;;;;;;5.25;50.12;103643.44;4918538;29;20064;-72
2022/03/18 08:07:52;;;;;;;18.02;10.88;;;;;;;4.95;48.68;103660.09;4918862;29;20107;-71
2022/03/18 08:10:38;;;;;;;18.13;10.85;;;;;;;4.86;49.25;103664.78;4918457;29;20115;-71
2022/03/18 08:13:24;;;;;;;20.50;11.15;;;;;;;5.22;48.65;103659.78;4918430;29;20056;-73
2022/03/18 08:16:12;;;;;;;19.63;10.90;;;;;;;4.87;48.28;103657.06;4918617;29;20029;-71
2022/03/18 08:18:58;;;;;;;20.30;11.63;;;;;;;4.71;47.87;103651.00;4905058;29;20043;-71
2022/03/18 08:21:44;;;;;;;17.08;10.63;;;;;;;4.64;48.64;103649.78;4918479;29;20461;-72
2022/03/18 08:24:31;;;;;;;15.55;10.02;;;;;;;5.48;46.92;103651.56;4918548;29;20426;-72
2022/03/18 08:27:17;;;;;;;18.63;10.50;;;;;;;5.58;46.65;103645.13;4918264;29;20035;-72
2022/03/18 08:30:05;;;;;;;19.65;10.15;;;;;;;5.59;46.15;103651.22;4918343;29;20039;-73
2022/03/18 08:32:54;;;;;;;14.93;9.27;;;;;;;6.31;44.54;103650.44;4904318;29;20091;-72
2022/03/18 08:35:41;;;;;;;17.38;9.23;;;;;;;6.68;44.05;103658.25;4918178;29;20111;-72
2022/03/18 08:38:27;;;;;;;17.38;10.13;;;;;;;6.08;42.91;103652.81;4918547;29;20038;-73
2022/03/18 08:41:13;;;;;;;18.60;9.23;;;;;;;6.51;41.72;103643.56;4918740;29;20031;-72
2022/03/18 08:43:59;;;;;;;15.02;8.88;;;;;;;6.15;42.46;103649.69;4904472;29;20040;-72
2022/03/18 08:46:44;;;;;;;18.10;10.35;;;;;;;6.81;42.30;103644.94;4918806;29;20088;-71
2022/03/18 08:49:30;;;;;;;14.30;9.07;;;;;;;7.15;42.12;103637.78;4918397;29;20459;-72
2022/03/18 08:52:16;;;;;;;14.68;8.80;;;;;;;7.42;41.44;103632.00;4904563;29;20111;-72
2022/03/18 08:55:02;;;;;;;12.70;9.25;;;;;;;7.53;40.62;103650.69;4919658;29;20024;-73
2022/03/18 08:57:48;;;;;;;14.25;8.77;;;;;;;6.32;40.83;103646.16;4922381;29;20111;-73
2022/03/18 09:00:34;;;;;;;22.30;9.05;;;;;;;5.72;41.89;103640.59;4921830;29;20346;-73
2022/03/18 09:03:20;;;;;;;15.82;9.00;;;;;;;6.22;42.06;103646.56;4922169;29;20074;-72
2022/03/18 09:06:07;;;;;;;14.43;8.70;;;;;;;6.41;41.71;103644.84;4922073;29;20039;-71
2022/03/18 09:08:53;;;;;;;13.35;8.20;;;;;;;6.17;40.81;103648.94;4922718;29;20047;-71
2022/03/18 09:11:38;;;;;;;11.98;7.82;;;;;;;6.64;40.23;103640.69;4921898;29;20028;-72
2022/03/18 09:14:24;;;;;;;14.13;8.63;;;;;;;7.13;39.86;103642.91;4922085;28;20056;-71
2022/03/18 09:17:10;;;;;;;14.98;7.88;;;;;;;7.19;39.87;103640.56;4922628;28;20120;-72
2022/03/18 09:19:56;;;;;;;10.68;7.38;;;;;;;6.29;40.21;103641.69;4922213;29;20046;-73
2022/03/18 09:22:43;;;;;;;12.38;7.88;;;;;;;6.45;39.31;103645.88;4922317;28;20425;-71
2022/03/18 09:25:28;;;;;;;12.38;8.20;;;;;;;6.90;39.28;103647.94;4922073;29;20040;-72
2022/03/18 09:28:14;;;;;;;13.38;8.02;;;;;;;7.13;39.12;103634.19;4921105;29;20453;-72
2022/03/18 09:31:01;;;;;;;12.75;8.50;;;;;;;7.79;38.34;103636.97;4922316;28;20079;-73
2022/03/18 09:33:47;;;;;;;14.63;8.15;;;;;;;7.36;38.73;103643.88;4921652;29;20078;-73
2022/03/18 09:36:33;;;;;;;13.40;8.68;;;;;;;6.99;38.63;103648.34;4921763;29;20540;-73
2022/03/18 09:39:19;;;;;;;13.25;7.60;;;;;;;6.63;38.78;103641.53;4921687;29;20028;-73
2022/03/18 09:42:07;;;;;;;13.55;8.63;;;;;;;6.46;39.78;103650.25;4921669;29;20107;-73
2022/03/18 09:44:53;;;;;;;14.40;7.75;;;;;;;6.69;39.51;103652.19;4922280;28;20449;-73
2022/03/18 09:47:39;;;;;;;10.95;6.68;;;;;;;5.51;39.85;103655.16;4922448;29;20091;-70
2022/03/18 09:50:25;;;;;;;14.48;7.95;;;;;;;6.13;39.60;103643.50;4907773;29;20024;-72
2022/03/18 09:53:11;;;;;;;11.40;7.75;;;;;;;6.40;39.97;103640.47;4920949;29;20036;-72
2022/03/18 09:55:57;;;;;;;12.18;8.15;;;;;;;6.50;39.62;103649.56;4921055;29;20063;-73
2022/03/18 09:58:43;;;;;;;11.93;7.40;;;;;;;6.24;39.41;103650.09;4920732;29;20028;-74
2022/03/18 10:01:29;;;;;;;12.55;7.65;;;;;;;5.86;38.74;103648.28;4921521;29;20032;-72
2022/03/18 10:04:15;;;;;;;11.65;7.78;;;;;;;6.39;39.01;103656.03;4920926;29;20099;-71
2022/03/18 10:07:12;;;;;;;10.93;7.35;;;;;;;6.46;38.68;103645.06;4920682;29;20040;-71
2022/03/18 10:10:15;;;;;;;11.25;7.03;;;;;;;6.65;39.42;103645.97;4920953;29;20043;-71
2022/03/18 10:13:03;;;;;;;11.85;6.72;;;;;;;6.91;39.25;103637.59;4907958;29;20028;-72
2022/03/18 10:15:48;;;;;;;14.52;7.07;;;;;;;7.38;38.12;103637.91;4920825;29;20064;-72
2022/03/18 10:18:47;;;;;;;11.85;7.15;;;;;;;7.43;37.84;103627.69;4921383;29;20028;-72
2022/03/18 10:21:54;;;;;;;11.35;7.90;;;;;;;7.63;37.94;103642.44;4920346;29;20111;-72
2022/03/18 10:24:40;;;;;;;17.63;7.18;;;;;;;6.61;37.83;103637.94;4905669;29;20098;-72
2022/03/18 10:27:26;;;;;;;12.30;7.35;;;;;;;7.29;37.69;103626.19;4921456;28;20032;-72
2022/03/18 10:30:20;;;;;;;13.32;7.55;;;;;;;7.01;37.73;103628.44;4920820;29;20126;-73
2022/03/18 10:33:06;;;;;;;11.88;7.38;;;;;;;6.57;37.81;103625.59;4921120;29;20417;-72
2022/03/18 10:38:57;;;;;;;14.88;8.00;;;;;;;7.24;38.04;103620.78;4920100;29;20080;-73
2022/03/18 10:41:48;;;;;;;11.80;6.75;;;;;;;7.33;37.31;103617.66;4905838;29;20040;-72
2022/03/18 10:44:59;;;;;;;12.40;7.38;;;;;;;7.41;37.33;103619.78;4920528;28;20028;-72
2022/03/18 10:47:45;;;;;;;10.05;6.88;;;;;;;7.41;37.52;103614.56;4920272;29;20048;-73
2022/03/18 10:50:31;;;;;;;12.23;7.25;;;;;;;7.57;37.19;103611.75;4920152;29;20055;-73
2022/03/18 10:53:18;;;;;;;10.65;6.57;;;;;;;6.84;37.70;103605.97;4920365;29;20028;-75
2022/03/18 10:56:04;;;;;;;11.30;6.68;;;;;;;7.45;37.76;103607.75;4921184;28;20036;-72
2022/03/18 10:58:50;;;;;;;11.25;7.10;;;;;;;8.22;36.53;103599.59;4919556;29;20052;-74
2022/03/18 11:01:36;;;;;;;11.57;6.97;;;;;;;7.21;36.72;103605.03;4919970;29;20047;-73
2022/03/18 11:04:26;;;;;;;11.85;7.78;;;;;;;7.14;37.48;103597.75;4919399;29;20115;-72
2022/03/18 11:07:30;;;;;;;12.07;7.47;;;;;;;7.05;36.58;103594.78;4907305;29;20072;-73
2022/03/18 11:13:25;;;;;;;10.63;6.53;;;;;;;6.69;37.14;103592.28;4919259;29;20132;-71
2022/03/18 11:16:11;;;;;;;14.75;8.05;;;;;;;7.31;36.87;103591.53;4919355;29;20035;-71
2022/03/18 11:18:58;;;;;;;15.35;8.07;;;;;;;7.57;36.10;103589.97;4906178;29;20031;-72
2022/03/18 11:21:45;;;;;;;12.32;6.63;;;;;;;7.39;35.77;103589.25;4920081;29;20032;-72
2022/03/18 11:24:32;;;;;;;10.52;6.60;;;;;;;8.25;35.54;103586.66;4919571;28;20051;-73
2022/03/18 11:27:18;;;;;;;12.00;7.07;;;;;;;7.76;36.09;103597.72;4906878;29;20024;-72
2022/03/18 11:30:39;;;;;;;10.32;6.82;;;;;;;8.19;35.12;103577.66;4919597;29;20020;-72
2022/03/18 11:33:25;;;;;;;12.75;8.40;;;;;;;8.53;35.25;103578.09;4919803;29;20462;-72
2022/03/18 11:36:13;;;;;;;11.13;6.90;;;;;;;8.52;34.92;103571.97;4918921;29;20180;-72
2022/03/18 11:39:03;;;;;;;11.65;8.40;;;;;;;8.16;35.35;103567.09;4919334;29;20032;-73
2022/03/18 11:41:56;;;;;;;14.60;7.60;;;;;;;7.66;35.54;103565.16;4919176;29;20036;-74
2022/03/18 11:44:53;;;;;;;11.38;6.00;;;;;;;7.84;36.00;103560.63;4920433;29;20163;-72
2022/03/18 11:47:40;;;;;;;9.02;5.90;;;;;;;7.38;35.54;103559.66;4919310;29;20032;-73
2022/03/18 11:50:40;;;;;;;10.93;6.15;;;;;;;7.57;35.66;103553.47;4919119;29;20035;-73
2022/03/18 11:53:47;;;;;;;9.00;5.15;;;;;;;7.89;35.44;103542.56;4919668;28;20398;-72
2022/03/18 11:56:53;;;;;;;11.60;6.40;;;;;;;7.94;35.12;103544.50;4920267;28;20020;-73
2022/03/18 11:59:43;;;;;;;9.35;5.50;;;;;;;7.97;34.89;103555.06;4918940;29;20027;-71
2022/03/18 12:02:36;;;;;;;8.73;5.88;;;;;;;7.93;35.25;103544.44;4906050;29;20036;-72
2022/03/18 12:05:29;;;;;;;12.57;6.50;;;;;;;7.91;35.77;103556.53;4918787;29;20043;-73
2022/03/18 12:08:15;;;;;;;8.63;5.82;;;;;;;7.98;35.46;103541.19;4919486;29;20032;-71
2022/03/18 12:11:00;;;;;;;9.77;5.32;;;;;;;8.47;34.76;103528.22;4918559;29;20032;-73
2022/03/18 12:13:46;;;;;;;11.27;6.72;;;;;;;8.56;34.73;103525.97;4919147;29;20056;-74
2022/03/18 12:16:32;;;;;;;13.27;7.18;;;;;;;8.25;34.50;103523.97;4918773;29;20031;-71
2022/03/18 12:19:18;;;;;;;10.32;6.35;;;;;;;8.36;35.32;103522.63;4920061;28;20461;-72
2022/03/18 12:22:06;;;;;;;9.88;5.80;;;;;;;8.14;34.89;103526.97;4919906;28;20349;-73
2022/03/18 12:24:54;;;;;;;8.73;5.70;;;;;;;8.37;34.88;103516.53;4919688;28;20033;-72
2022/03/18 12:27:41;;;;;;;8.75;5.70;;;;;;;8.44;33.65;103525.53;4917962;29;20035;-73
2022/03/18 12:30:28;;;;;;;10.70;5.47;;;;;;;8.42;33.81;103509.78;4907640;29;20040;-73
2022/03/18 12:33:14;;;;;;;8.32;5.28;;;;;;;8.81;33.83;103511.16;4923544;28;20481;-73
2022/03/18 12:36:00;;;;;;;8.63;5.30;;;;;;;8.89;34.63;103521.91;4908928;29;20046;-72
2022/03/18 12:38:46;;;;;;;9.73;5.53;;;;;;;8.71;33.74;103516.03;4908049;29;20120;-72
2022/03/18 12:41:32;;;;;;;9.50;5.18;;;;;;;8.67;33.34;103515.03;4908726;29;20369;-73
2022/03/18 12:44:30;;;;;;;9.85;5.32;;;;;;;8.45;33.35;103516.84;4922483;29;20107;-73
2022/03/18 12:47:16;;;;;;;10.07;5.85;;;;;;;8.67;34.05;103499.34;4922097;29;20157;-75
2022/03/18 12:50:02;;;;;;;16.25;8.98;;;;;;;9.09;33.82;103502.53;4923513;29;20048;-72
2022/03/18 12:52:48;;;;;;;10.32;6.20;;;;;;;9.15;33.31;103502.72;4922947;28;20028;-73
2022/03/18 12:55:34;;;;;;;11.85;6.57;;;;;;;9.50;32.77;103503.00;4922499;29;20461;-75
2022/03/18 12:58:22;;;;;;;8.88;5.82;;;;;;;8.95;33.35;103504.69;4922112;29;20119;-75
2022/03/18 13:01:11;;;;;;;12.32;5.55;;;;;;;8.50;33.87;103500.50;4922999;29;20497;-74
2022/03/18 13:03:57;;;;;;;11.57;6.07;;;;;;;8.32;33.65;103489.38;4922588;28;20055;-72
2022/03/18 13:06:43;;;;;;;8.48;5.18;;;;;;;8.55;33.87;103493.69;4921701;29;20111;-73
2022/03/18 13:09:28;;;;;;;7.60;5.22;;;;;;;8.18;33.48;103494.91;4922280;29;20042;-72